Home > Products > Valid Products > TAF

000
FTUS42 KCHS 100529
TAFCHS
TAF
KCHS 100529Z 1006/1106 27011G16KT P6SM SKC
     FM101400 28016G25KT P6SM SKC
     FM102300 26010KT P6SM SKC=



000
FTUS42 KCHS 100529
TAFSAV
TAF
KSAV 100529Z 1006/1106 27010KT P6SM SKC
     FM101400 28017G27KT P6SM SKC
     FM102300 26010KT P6SM SKC=



000
FTUS42 KCHS 092320
TAFSAV
TAF
KSAV 092320Z 1000/1024 27012G20KT P6SM SCT070
     FM100500 27013G19KT P6SM SKC
     FM101400 28020G27KT P6SM SKC=



000
FTUS42 KCHS 092320
TAFCHS
TAF
KCHS 092320Z 1000/1024 28014G24KT P6SM BKN070
     FM100600 27012G18KT P6SM SKC
     FM101400 28016G25KT P6SM SKC=



000
FTUS42 KCHS 091728
TAFSAV
TAF
KSAV 091728Z 0918/1018 27021G31KT P6SM BKN050
     FM092300 26015G23KT P6SM SCT070
     FM100500 27013G19KT P6SM SKC
     FM101400 28020G27KT P6SM SKC=



000
FTUS42 KCHS 091728
TAFCHS
TAF
KCHS 091728Z 0918/1018 26019G29KT P6SM BKN060
     FM100000 26014G21KT P6SM BKN070
     FM100600 27012G18KT P6SM SKC
     FM101400 28016G25KT P6SM SKC=



000
FTUS42 KCHS 091728
TAFSAV
TAF
KSAV 091728Z 0918/1018 27021G31KT P6SM BKN050
     FM092300 26015G23KT P6SM SCT070
     FM100500 27013G19KT P6SM SKC
     FM101400 28020G27KT P6SM SKC=



000
FTUS42 KCHS 091728
TAFCHS
TAF
KCHS 091728Z 0918/1018 26019G29KT P6SM BKN060
     FM100000 26014G21KT P6SM BKN070
     FM100600 27012G18KT P6SM SKC
     FM101400 28016G25KT P6SM SKC=



000
FTUS42 KCHS 091121
TAFSAV
TAF
KSAV 091121Z 0912/1012 25010KT P6SM SKC
     FM091430 26013G19KT P6SM FEW060
     FM091600 27024G32KT P6SM BKN060
     FM100000 27014G21KT P6SM SCT070
     FM100500 27013G19KT P6SM SKC=



000
FTUS42 KCHS 091121
TAFCHS
TAF
KCHS 091121Z 0912/1012 27010G15KT P6SM SKC
     FM091400 27013G19KT P6SM FEW060
     FM091600 26021G31KT P6SM BKN060
     FM100000 26013G19KT P6SM BKN070
     FM100600 27012G18KT P6SM SKC=



000
FTUS42 KCHS 091121
TAFCHS
TAF
KCHS 091121Z 0912/1012 27010G15KT P6SM SKC
     FM091400 27013G19KT P6SM FEW060
     FM091600 26021G31KT P6SM BKN060
     FM100000 26013G19KT P6SM BKN070
     FM100600 27012G18KT P6SM SKC=



000
FTUS42 KCHS 091121
TAFSAV
TAF
KSAV 091121Z 0912/1012 25010KT P6SM SKC
     FM091430 26013G19KT P6SM FEW060
     FM091600 27024G32KT P6SM BKN060
     FM100000 27014G21KT P6SM SCT070
     FM100500 27013G19KT P6SM SKC=



000
FTUS42 KCHS 090536
TAFCHS
TAF
KCHS 090536Z 0906/1006 28010KT P6SM SKC
     FM091000 27012G19KT P6SM FEW035
     FM091700 26021G29KT P6SM SCT035 BKN050
     FM100100 27013G20KT P6SM SCT040=



000
FTUS42 KCHS 090536
TAFSAV
TAF
KSAV 090536Z 0906/1006 29009KT P6SM SKC
     FM091000 27013G20KT P6SM SCT035
     FM091700 27024G32KT P6SM SCT035 BKN050
     FM100100 28014G21KT P6SM SCT040=



000
FTUS42 KCHS 090536
TAFCHS
TAF
KCHS 090536Z 0906/1006 28010KT P6SM SKC
     FM091000 27012G19KT P6SM FEW035
     FM091700 26021G29KT P6SM SCT035 BKN050
     FM100100 27013G20KT P6SM SCT040=



000
FTUS42 KCHS 090536
TAFSAV
TAF
KSAV 090536Z 0906/1006 29009KT P6SM SKC
     FM091000 27013G20KT P6SM SCT035
     FM091700 27024G32KT P6SM SCT035 BKN050
     FM100100 28014G21KT P6SM SCT040=



000
FTUS42 KCHS 090412 AAB
TAFSAV
TAF AMD
KSAV 090412Z 0904/0924 27010KT P6SM BKN060
     FM090600 27012G20KT P6SM FEW040
     FM091600 27024G32KT P6SM SCT035 BKN050=



000
FTUS42 KCHS 090412 AAB
TAFSAV
TAF AMD
KSAV 090412Z 0904/0924 27010KT P6SM BKN060
     FM090600 27012G20KT P6SM FEW040
     FM091600 27024G32KT P6SM SCT035 BKN050=



000
FTUS42 KCHS 090411 AAB
TAFCHS
TAF AMD
KCHS 090411Z 0904/0924 26010KT P6SM BKN060
     FM090700 27012G20KT P6SM FEW050
     FM091600 26020G28KT P6SM SCT035 BKN050=



000
FTUS42 KCHS 090411 AAB
TAFCHS
TAF AMD
KCHS 090411Z 0904/0924 26010KT P6SM BKN060
     FM090700 27012G20KT P6SM FEW050
     FM091600 26020G28KT P6SM SCT035 BKN050=



000
FTUS42 KCHS 090113 AAA
TAFSAV
TAF AMD
KSAV 090113Z 0901/0924 27013G20KT 6SM -RA OVC035
     FM090200 29013G20KT P6SM BKN060
     FM090500 28014G21KT P6SM SCT040
     FM091600 27024G32KT P6SM SCT035 BKN050=



000
FTUS42 KCHS 090113 AAA
TAFCHS
TAF AMD
KCHS 090113Z 0901/0924 26012KT P6SM -RA BKN045
     FM090200 29012G20KT P6SM BKN060
     FM090600 27015G22KT P6SM SCT050
     FM091600 26021G30KT P6SM SCT035 BKN050=



000
FTUS42 KCHS 090113 AAA
TAFCHS
TAF AMD
KCHS 090113Z 0901/0924 26012KT P6SM -RA BKN045
     FM090200 29012G20KT P6SM BKN060
     FM090600 27015G22KT P6SM SCT050
     FM091600 26021G30KT P6SM SCT035 BKN050=



000
FTUS42 KCHS 082333
TAFCHS
TAF
KCHS 082333Z 0900/0924 29015G24KT 6SM -RA BKN035 OVC060
     FM090100 29012G20KT P6SM BKN060
     FM090600 27015G22KT P6SM SCT050
     FM091600 26021G30KT P6SM SCT035 BKN050=



000
FTUS42 KCHS 082333
TAFSAV
TAF
KSAV 082333Z 0900/0924 29013G20KT 6SM -RA BKN035 OVC060
     FM090130 29013G20KT P6SM BKN060
     FM090500 28014G21KT P6SM SCT040
     FM091600 27024G32KT P6SM SCT035 BKN050=



000
FTUS42 KCHS 082333
TAFCHS
TAF
KCHS 082333Z 0900/0924 29015G24KT 6SM -RA BKN035 OVC060
     FM090100 29012G20KT P6SM BKN060
     FM090600 27015G22KT P6SM SCT050
     FM091600 26021G30KT P6SM SCT035 BKN050=



000
FTUS42 KCHS 082333
TAFSAV
TAF
KSAV 082333Z 0900/0924 29013G20KT 6SM -RA BKN035 OVC060
     FM090130 29013G20KT P6SM BKN060
     FM090500 28014G21KT P6SM SCT040
     FM091600 27024G32KT P6SM SCT035 BKN050=



000
FTUS42 KCHS 082128 AAA
TAFSAV
TAF AMD
KSAV 082128Z 0821/0918 23016G25KT P6SM SCT050 BKN080
     FM082200 24019G27KT P6SM VCSH SCT035 OVC050
      TEMPO 0822/0902 29022G32KT 5SM SHRA BKN035
     FM090500 27013G19KT P6SM FEW040
     FM091500 27020G28KT P6SM SCT035 BKN050=



000
FTUS42 KCHS 082128 AAA
TAFSAV
TAF AMD
KSAV 082128Z 0821/0918 23016G25KT P6SM SCT050 BKN080
     FM082200 24019G27KT P6SM VCSH SCT035 OVC050
      TEMPO 0822/0902 29022G32KT 5SM SHRA BKN035
     FM090500 27013G19KT P6SM FEW040
     FM091500 27020G28KT P6SM SCT035 BKN050=



000
FTUS42 KCHS 082126 AAB
TAFCHS
TAF AMD
KCHS 082126Z 0821/0918 21017G23KT P6SM BKN080
     FM082200 23017G25KT P6SM VCSH SCT040 BKN060
      TEMPO 0823/0903 28025G32KT 5SM SHRA BKN035
     FM090600 27015G21KT P6SM SCT050
     FM091500 27017G27KT P6SM SCT035 BKN050=



000
FTUS42 KCHS 082126 AAB
TAFCHS
TAF AMD
KCHS 082126Z 0821/0918 21017G23KT P6SM BKN080
     FM082200 23017G25KT P6SM VCSH SCT040 BKN060
      TEMPO 0823/0903 28025G32KT 5SM SHRA BKN035
     FM090600 27015G21KT P6SM SCT050
     FM091500 27017G27KT P6SM SCT035 BKN050=



000
FTUS42 KCHS 082016 AAA
TAFCHS
TAF AMD
KCHS 082016Z 0820/0918 20017G23KT P6SM SCT100
     FM082200 21017G25KT P6SM SCT050 BKN080
     FM090000 24015G23KT P6SM VCSH SCT035 OVC050
      TEMPO 0900/0904 6SM -SHRA BKN035
     FM090600 27015G21KT P6SM SCT050
     FM091500 27017G27KT P6SM SCT035 BKN050=



000
FTUS42 KCHS 081737
TAFSAV
TAF
KSAV 081737Z 0818/0918 25016G24KT P6SM SCT100
     FM082200 24019G27KT P6SM SCT050 BKN080
     FM090000 27013G19KT P6SM VCSH SCT035 OVC050
      TEMPO 0900/0904 6SM -SHRA BKN035
     FM090500 27013G19KT P6SM FEW040
     FM091500 27020G28KT P6SM SCT035 BKN050=



000
FTUS42 KCHS 081737
TAFCHS
TAF
KCHS 081737Z 0818/0918 23014G21KT P6SM SCT100
     FM082200 23017G25KT P6SM SCT050 BKN080
     FM090000 24012G18KT P6SM VCSH SCT035 OVC050
      TEMPO 0900/0904 6SM -SHRA BKN035
     FM090600 27014G21KT P6SM SCT050
     FM091500 27017G27KT P6SM SCT035 BKN050=



000
FTUS42 KCHS 081737
TAFSAV
TAF
KSAV 081737Z 0818/0918 25016G24KT P6SM SCT100
     FM082200 24019G27KT P6SM SCT050 BKN080
     FM090000 27013G19KT P6SM VCSH SCT035 OVC050
      TEMPO 0900/0904 6SM -SHRA BKN035
     FM090500 27013G19KT P6SM FEW040
     FM091500 27020G28KT P6SM SCT035 BKN050=



000
FTUS42 KCHS 081737
TAFCHS
TAF
KCHS 081737Z 0818/0918 23014G21KT P6SM SCT100
     FM082200 23017G25KT P6SM SCT050 BKN080
     FM090000 24012G18KT P6SM VCSH SCT035 OVC050
      TEMPO 0900/0904 6SM -SHRA BKN035
     FM090600 27014G21KT P6SM SCT050
     FM091500 27017G27KT P6SM SCT035 BKN050=



000
FTUS42 KCHS 081703 AAB
TAFSAV
TAF AMD
KSAV 081703Z 0817/0912 24016G22KT P6SM SKC
     FM082200 24019G27KT P6SM BKN060
     FM090000 27013G19KT P6SM VCSH SCT035 OVC050
     FM090500 28013G19KT P6SM FEW035=



000
FTUS42 KCHS 081702 AAB
TAFCHS
TAF AMD
KCHS 081702Z 0817/0912 23014G21KT P6SM SKC
     FM082200 23017G25KT P6SM SCT035 BKN050
     FM090000 26012G18KT P6SM VCSH OVC060
     FM090600 27014G21KT P6SM FEW035=



000
FTUS42 KCHS 081702 AAB
TAFCHS
TAF AMD
KCHS 081702Z 0817/0912 23014G21KT P6SM SKC
     FM082200 23017G25KT P6SM SCT035 BKN050
     FM090000 26012G18KT P6SM VCSH OVC060
     FM090600 27014G21KT P6SM FEW035=



000
FTUS42 KCHS 081604 AAA
TAFSAV
TAF AMD
KSAV 081604Z 0816/0912 25008KT P6SM SKC
     FM081800 24016G22KT P6SM SKC
     FM082200 24019G27KT P6SM BKN060
     FM090000 27013G19KT P6SM VCSH SCT035 OVC050
     FM090500 28013G19KT P6SM FEW035=



000
FTUS42 KCHS 081603 AAA
TAFCHS
TAF AMD
KCHS 081603Z 0816/0912 24008KT P6SM SKC
     FM081800 23014G21KT P6SM SKC
     FM082200 23017G25KT P6SM SCT035 BKN050
     FM090000 26012G18KT P6SM VCSH OVC060
     FM090600 27014G21KT P6SM FEW035=



000
FTUS42 KCHS 081121
TAFCHS
TAF
KCHS 081121Z 0812/0912 26008KT P6SM SKC
     FM081600 23014G21KT P6SM SKC
     FM082000 23017G25KT P6SM SCT035 BKN050
     FM090100 26012G18KT P6SM VCSH OVC060
     FM090600 27014G21KT P6SM FEW035=



000
FTUS42 KCHS 081121
TAFSAV
TAF
KSAV 081121Z 0812/0912 25008KT P6SM SKC
     FM081600 24016G22KT P6SM SKC
     FM082000 24019G27KT P6SM SCT035 BKN050
     FM090000 27013G19KT P6SM VCSH OVC060
     FM090500 28013G19KT P6SM FEW035=



000
FTUS42 KCHS 081121
TAFSAV
TAF
KSAV 081121Z 0812/0912 25008KT P6SM SKC
     FM081600 24016G22KT P6SM SKC
     FM082000 24019G27KT P6SM SCT035 BKN050
     FM090000 27013G19KT P6SM VCSH OVC060
     FM090500 28013G19KT P6SM FEW035=



000
FTUS42 KCHS 081121
TAFCHS
TAF
KCHS 081121Z 0812/0912 26008KT P6SM SKC
     FM081600 23014G21KT P6SM SKC
     FM082000 23017G25KT P6SM SCT035 BKN050
     FM090100 26012G18KT P6SM VCSH OVC060
     FM090600 27014G21KT P6SM FEW035=



000
FTUS42 KCHS 080538
TAFSAV
TAF
KSAV 080538Z 0806/0906 25005KT P6SM SKC
     FM081600 24014G21KT P6SM SKC
     FM082000 24019G27KT P6SM SCT035 BKN050
     FM090200 27012KT P6SM FEW035=



000
FTUS42 KCHS 080538
TAFCHS
TAF
KCHS 080538Z 0806/0906 28005KT P6SM SKC
     FM081600 24014G21KT P6SM SKC
     FM082100 23017G25KT P6SM SCT035 BKN050
     FM090200 26012KT P6SM FEW030=



000
FTUS42 KCHS 080538
TAFSAV
TAF
KSAV 080538Z 0806/0906 25005KT P6SM SKC
     FM081600 24014G21KT P6SM SKC
     FM082000 24019G27KT P6SM SCT035 BKN050
     FM090200 27012KT P6SM FEW035=



000
FTUS42 KCHS 080538
TAFCHS
TAF
KCHS 080538Z 0806/0906 28005KT P6SM SKC
     FM081600 24014G21KT P6SM SKC
     FM082100 23017G25KT P6SM SCT035 BKN050
     FM090200 26012KT P6SM FEW030=



000
FTUS42 KCHS 072323
TAFSAV
TAF
KSAV 072323Z 0800/0824 28005KT P6SM SKC
     FM081400 25010KT P6SM SKC
     FM081700 25019G26KT P6SM SCT035=



000
FTUS42 KCHS 072323
TAFCHS
TAF
KCHS 072323Z 0800/0824 30009KT P6SM FEW090
     FM080800 27005KT P6SM SKC
     FM081600 25010KT P6SM SKC
     FM081800 23017G24KT P6SM SCT035=



000
FTUS42 KCHS 072323
TAFCHS
TAF
KCHS 072323Z 0800/0824 30009KT P6SM FEW090
     FM080800 27005KT P6SM SKC
     FM081600 25010KT P6SM SKC
     FM081800 23017G24KT P6SM SCT035=



000
FTUS42 KCHS 072323
TAFSAV
TAF
KSAV 072323Z 0800/0824 28005KT P6SM SKC
     FM081400 25010KT P6SM SKC
     FM081700 25019G26KT P6SM SCT035=



000
FTUS42 KCHS 071736
TAFSAV
TAF
KSAV 071736Z 0718/0818 32014G22KT P6SM SCT020 BKN035
     FM072200 31011KT P6SM SKC
     FM080000 29006KT P6SM SKC
     FM081500 25011KT P6SM FEW250=



000
FTUS42 KCHS 071736
TAFCHS
TAF
KCHS 071736Z 0718/0818 34020G28KT P6SM VCSH SCT015 OVC025
     FM072000 33015G22KT P6SM SCT015 BKN050
     FM072300 32012G18KT P6SM SKC
     FM080200 29009KT P6SM SKC
     FM081600 25011KT P6SM FEW250=



000
FTUS42 KCHS 071123
TAFSAV
TAF
KSAV 071123Z 0712/0812 34013G18KT 6SM -RA SCT007 OVC015
      TEMPO 0712/0713 4SM RA BR BKN007
     FM071600 32016G24KT P6SM SCT015 OVC035
     FM071900 31015G20KT P6SM SCT035
     FM072300 29007KT P6SM SKC=



000
FTUS42 KCHS 071123
TAFCHS
TAF
KCHS 071123Z 0712/0812 01016G24KT 6SM -RA SCT010 OVC015
     FM071700 34020G28KT P6SM -RA SCT015 OVC025
     FM072000 33015G22KT P6SM SCT015 BKN250
     FM072300 32012G18KT P6SM SKC
     FM080400 29009KT P6SM SKC=



    US Dept of Commerce
    National Oceanic and Atmospheric Administration
    National Weather Service
    1325 East West Highway
    Silver Spring, MD 20910
    Page Author: NWS Internet Services Team
Disclaimer
Information Quality
Credits
Glossary
Privacy Policy
Freedom of Information Act (FOIA)
About Us
Career Opportunities